North Grafton, Massachusetts
Current Conditions -  °F | °C
As of 3:54 AM on Tuesday 21 Oct 2014 (Local Time) from KORH Reporting Station
Few Clouds Few Clouds  
Wind Chill: 44°   Ceiling: Unl
Heat Index: 44°   Visibility: 10mi
Dew Point: 41°   Wind: 3mph
Humidity: 89%   Direction: 170°S
Pressure: 29.96"   Gusts: NA
Location:  42.23°N, 71.71°W
Report Text: KORH 210754Z AUTO 17003KT 10SM FEW055 07/05 A2996 RMK AO2 SLP151 T00670050
Loading
Personal Weather Stations






























Interactive Weather Map
Tropical Storm Tracking
New forecast layout! Learn more

10-Day Weather Forecast

Advertisements
Track Severe Weather on mobile